sensor_id;sensor_type;location;lat;lon;timestamp;P1;durP1;ratioP1;P2;durP2;ratioP2
43606;SDS011;29197;44.788;10.366;2023-06-14T00:02:32;8.43;;;3.80;;
43606;SDS011;29197;44.788;10.366;2023-06-14T00:05:21;4.78;;;3.33;;
43606;SDS011;29197;44.788;10.366;2023-06-14T00:08:11;7.80;;;4.07;;
43606;SDS011;29197;44.788;10.366;2023-06-14T00:11:01;4.70;;;3.97;;
43606;SDS011;29197;44.788;10.366;2023-06-14T00:13:50;7.25;;;5.25;;
43606;SDS011;29197;44.788;10.366;2023-06-14T00:16:39;8.20;;;4.68;;
43606;SDS011;29197;44.788;10.366;2023-06-14T00:19:29;9.23;;;4.50;;
43606;SDS011;29197;44.788;10.366;2023-06-14T00:22:21;7.63;;;4.32;;
43606;SDS011;29197;44.788;10.366;2023-06-14T00:25:11;6.05;;;4.03;;
43606;SDS011;29197;44.788;10.366;2023-06-14T00:28:15;7.03;;;5.00;;
43606;SDS011;29197;44.788;10.366;2023-06-14T00:31:04;7.70;;;4.95;;
43606;SDS011;29197;44.788;10.366;2023-06-14T00:33:52;7.47;;;5.85;;
43606;SDS011;29197;44.788;10.366;2023-06-14T00:36:41;6.32;;;4.55;;
43606;SDS011;29197;44.788;10.366;2023-06-14T00:39:30;7.13;;;5.25;;
43606;SDS011;29197;44.788;10.366;2023-06-14T00:42:28;5.85;;;4.57;;
43606;SDS011;29197;44.788;10.366;2023-06-14T00:45:18;7.53;;;4.80;;
43606;SDS011;29197;44.788;10.366;2023-06-14T00:48:07;6.90;;;4.95;;
43606;SDS011;29197;44.788;10.366;2023-06-14T00:50:56;8.27;;;5.78;;
43606;SDS011;29197;44.788;10.366;2023-06-14T00:53:47;9.52;;;5.38;;
43606;SDS011;29197;44.788;10.366;2023-06-14T00:56:36;12.95;;;5.35;;
43606;SDS011;29197;44.788;10.366;2023-06-14T00:59:25;8.55;;;4.68;;
43606;SDS011;29197;44.788;10.366;2023-06-14T01:02:16;6.85;;;4.47;;
43606;SDS011;29197;44.788;10.366;2023-06-14T01:05:05;7.32;;;3.75;;
43606;SDS011;29197;44.788;10.366;2023-06-14T01:08:05;8.70;;;3.83;;
43606;SDS011;29197;44.788;10.366;2023-06-14T01:11:01;3.50;;;3.20;;
43606;SDS011;29197;44.788;10.366;2023-06-14T01:13:52;6.75;;;3.17;;
43606;SDS011;29197;44.788;10.366;2023-06-14T01:16:42;7.25;;;2.80;;
43606;SDS011;29197;44.788;10.366;2023-06-14T01:19:33;9.38;;;3.10;;
43606;SDS011;29197;44.788;10.366;2023-06-14T01:22:22;6.03;;;3.42;;
43606;SDS011;29197;44.788;10.366;2023-06-14T01:25:13;7.13;;;3.30;;
43606;SDS011;29197;44.788;10.366;2023-06-14T01:28:04;7.60;;;2.67;;
43606;SDS011;29197;44.788;10.366;2023-06-14T01:30:58;7.43;;;3.28;;
43606;SDS011;29197;44.788;10.366;2023-06-14T01:33:50;7.45;;;3.08;;
43606;SDS011;29197;44.788;10.366;2023-06-14T01:36:40;5.15;;;2.42;;
43606;SDS011;29197;44.788;10.366;2023-06-14T01:39:29;6.03;;;2.50;;
43606;SDS011;29197;44.788;10.366;2023-06-14T01:42:20;4.50;;;2.70;;
43606;SDS011;29197;44.788;10.366;2023-06-14T01:45:09;6.00;;;2.58;;
43606;SDS011;29197;44.788;10.366;2023-06-14T01:47:58;6.22;;;2.45;;
43606;SDS011;29197;44.788;10.366;2023-06-14T01:50:48;9.65;;;2.70;;
43606;SDS011;29197;44.788;10.366;2023-06-14T01:53:36;5.43;;;2.40;;
43606;SDS011;29197;44.788;10.366;2023-06-14T01:56:25;11.15;;;2.55;;
43606;SDS011;29197;44.788;10.366;2023-06-14T01:59:15;8.02;;;2.30;;
43606;SDS011;29197;44.788;10.366;2023-06-14T02:02:04;5.53;;;2.60;;
43606;SDS011;29197;44.788;10.366;2023-06-14T02:04:53;5.07;;;2.65;;
43606;SDS011;29197;44.788;10.366;2023-06-14T02:07:44;7.68;;;2.50;;
43606;SDS011;29197;44.788;10.366;2023-06-14T02:10:33;10.40;;;4.82;;
43606;SDS011;29197;44.788;10.366;2023-06-14T02:13:22;3.17;;;2.47;;
43606;SDS011;29197;44.788;10.366;2023-06-14T02:16:12;7.13;;;2.38;;
43606;SDS011;29197;44.788;10.366;2023-06-14T02:19:04;3.95;;;3.35;;
43606;SDS011;29197;44.788;10.366;2023-06-14T02:21:53;7.30;;;3.17;;
43606;SDS011;29197;44.788;10.366;2023-06-14T02:24:42;10.73;;;3.03;;
43606;SDS011;29197;44.788;10.366;2023-06-14T02:27:32;5.30;;;2.33;;
43606;SDS011;29197;44.788;10.366;2023-06-14T02:30:21;6.10;;;2.67;;
43606;SDS011;29197;44.788;10.366;2023-06-14T02:33:11;11.77;;;3.38;;
43606;SDS011;29197;44.788;10.366;2023-06-14T02:36:00;7.68;;;3.35;;
43606;SDS011;29197;44.788;10.366;2023-06-14T02:38:50;10.93;;;3.13;;
43606;SDS011;29197;44.788;10.366;2023-06-14T02:41:40;3.25;;;2.95;;
43606;SDS011;29197;44.788;10.366;2023-06-14T02:44:29;8.98;;;3.08;;
43606;SDS011;29197;44.788;10.366;2023-06-14T02:47:18;11.68;;;3.92;;
43606;SDS011;29197;44.788;10.366;2023-06-14T02:50:09;14.25;;;3.80;;
43606;SDS011;29197;44.788;10.366;2023-06-14T02:52:58;6.47;;;4.07;;
43606;SDS011;29197;44.788;10.366;2023-06-14T02:55:47;4.80;;;3.33;;
43606;SDS011;29197;44.788;10.366;2023-06-14T02:58:36;7.78;;;3.47;;
43606;SDS011;29197;44.788;10.366;2023-06-14T03:01:26;4.43;;;2.83;;
43606;SDS011;29197;44.788;10.366;2023-06-14T03:04:21;6.97;;;4.20;;
43606;SDS011;29197;44.788;10.366;2023-06-14T03:07:13;6.55;;;3.45;;
43606;SDS011;29197;44.788;10.366;2023-06-14T03:10:07;6.93;;;3.08;;
43606;SDS011;29197;44.788;10.366;2023-06-14T03:12:56;9.88;;;4.50;;
43606;SDS011;29197;44.788;10.366;2023-06-14T03:15:45;6.63;;;3.55;;
43606;SDS011;29197;44.788;10.366;2023-06-14T03:18:36;8.05;;;4.00;;
43606;SDS011;29197;44.788;10.366;2023-06-14T03:21:25;10.60;;;3.97;;
43606;SDS011;29197;44.788;10.366;2023-06-14T03:24:16;6.15;;;3.60;;
43606;SDS011;29197;44.788;10.366;2023-06-14T03:27:06;9.82;;;4.68;;
43606;SDS011;29197;44.788;10.366;2023-06-14T03:29:57;7.30;;;4.82;;
43606;SDS011;29197;44.788;10.366;2023-06-14T03:32:45;10.15;;;6.72;;
43606;SDS011;29197;44.788;10.366;2023-06-14T03:35:34;8.98;;;5.40;;
43606;SDS011;29197;44.788;10.366;2023-06-14T03:38:23;10.48;;;4.82;;
43606;SDS011;29197;44.788;10.366;2023-06-14T03:41:13;8.10;;;4.47;;
43606;SDS011;29197;44.788;10.366;2023-06-14T03:44:02;9.30;;;4.10;;
43606;SDS011;29197;44.788;10.366;2023-06-14T03:46:51;12.55;;;5.38;;
43606;SDS011;29197;44.788;10.366;2023-06-14T03:49:40;9.88;;;5.18;;
43606;SDS011;29197;44.788;10.366;2023-06-14T03:52:29;7.90;;;4.50;;
43606;SDS011;29197;44.788;10.366;2023-06-14T03:55:17;11.65;;;5.10;;
43606;SDS011;29197;44.788;10.366;2023-06-14T03:58:11;11.50;;;4.55;;
43606;SDS011;29197;44.788;10.366;2023-06-14T04:01:00;9.25;;;5.55;;
43606;SDS011;29197;44.788;10.366;2023-06-14T04:03:49;7.32;;;4.10;;
43606;SDS011;29197;44.788;10.366;2023-06-14T04:06:38;6.75;;;4.32;;
43606;SDS011;29197;44.788;10.366;2023-06-14T04:09:28;5.43;;;3.60;;
43606;SDS011;29197;44.788;10.366;2023-06-14T04:12:17;7.13;;;4.45;;
43606;SDS011;29197;44.788;10.366;2023-06-14T04:15:09;10.32;;;4.20;;
43606;SDS011;29197;44.788;10.366;2023-06-14T04:18:00;4.57;;;3.72;;
43606;SDS011;29197;44.788;10.366;2023-06-14T04:20:49;7.35;;;4.18;;
43606;SDS011;29197;44.788;10.366;2023-06-14T04:23:38;5.85;;;3.47;;
43606;SDS011;29197;44.788;10.366;2023-06-14T04:26:30;4.28;;;2.80;;
43606;SDS011;29197;44.788;10.366;2023-06-14T04:29:20;7.90;;;3.88;;
43606;SDS011;29197;44.788;10.366;2023-06-14T04:32:11;6.85;;;4.63;;
43606;SDS011;29197;44.788;10.366;2023-06-14T04:35:00;3.83;;;3.05;;
43606;SDS011;29197;44.788;10.366;2023-06-14T04:37:50;3.95;;;2.60;;
43606;SDS011;29197;44.788;10.366;2023-06-14T04:40:40;5.53;;;3.78;;
43606;SDS011;29197;44.788;10.366;2023-06-14T04:43:31;8.10;;;4.20;;
43606;SDS011;29197;44.788;10.366;2023-06-14T04:46:24;8.65;;;4.93;;
43606;SDS011;29197;44.788;10.366;2023-06-14T04:49:16;7.57;;;4.18;;
43606;SDS011;29197;44.788;10.366;2023-06-14T04:52:05;6.05;;;4.07;;
43606;SDS011;29197;44.788;10.366;2023-06-14T04:54:56;10.95;;;4.13;;
43606;SDS011;29197;44.788;10.366;2023-06-14T04:57:45;5.88;;;4.18;;
43606;SDS011;29197;44.788;10.366;2023-06-14T05:00:34;10.30;;;3.67;;
43606;SDS011;29197;44.788;10.366;2023-06-14T05:03:24;12.45;;;4.47;;
43606;SDS011;29197;44.788;10.366;2023-06-14T05:06:14;8.65;;;3.92;;
43606;SDS011;29197;44.788;10.366;2023-06-14T05:09:04;9.65;;;4.68;;
43606;SDS011;29197;44.788;10.366;2023-06-14T05:11:52;9.75;;;4.80;;
43606;SDS011;29197;44.788;10.366;2023-06-14T05:14:42;9.18;;;4.53;;
43606;SDS011;29197;44.788;10.366;2023-06-14T05:17:31;8.82;;;4.13;;
43606;SDS011;29197;44.788;10.366;2023-06-14T05:20:21;11.68;;;5.18;;
43606;SDS011;29197;44.788;10.366;2023-06-14T05:23:13;5.65;;;4.32;;
43606;SDS011;29197;44.788;10.366;2023-06-14T05:26:02;10.90;;;4.95;;
43606;SDS011;29197;44.788;10.366;2023-06-14T05:28:51;21.10;;;5.35;;
43606;SDS011;29197;44.788;10.366;2023-06-14T05:31:40;9.25;;;4.40;;
43606;SDS011;29197;44.788;10.366;2023-06-14T05:34:29;7.93;;;4.82;;
43606;SDS011;29197;44.788;10.366;2023-06-14T05:37:17;5.05;;;3.97;;
43606;SDS011;29197;44.788;10.366;2023-06-14T05:40:08;8.70;;;4.50;;
43606;SDS011;29197;44.788;10.366;2023-06-14T05:42:57;9.13;;;4.30;;
43606;SDS011;29197;44.788;10.366;2023-06-14T05:45:46;9.40;;;4.40;;
43606;SDS011;29197;44.788;10.366;2023-06-14T05:48:35;8.95;;;3.72;;
43606;SDS011;29197;44.788;10.366;2023-06-14T05:51:24;8.30;;;4.82;;
43606;SDS011;29197;44.788;10.366;2023-06-14T05:54:13;6.82;;;4.63;;
43606;SDS011;29197;44.788;10.366;2023-06-14T05:57:03;11.90;;;5.22;;
43606;SDS011;29197;44.788;10.366;2023-06-14T05:59:53;10.80;;;5.50;;
43606;SDS011;29197;44.788;10.366;2023-06-14T06:02:41;7.82;;;4.43;;
43606;SDS011;29197;44.788;10.366;2023-06-14T06:05:30;7.57;;;4.60;;
43606;SDS011;29197;44.788;10.366;2023-06-14T06:08:19;7.90;;;4.78;;
43606;SDS011;29197;44.788;10.366;2023-06-14T06:11:08;9.10;;;4.20;;
43606;SDS011;29197;44.788;10.366;2023-06-14T06:13:58;11.13;;;4.57;;
43606;SDS011;29197;44.788;10.366;2023-06-14T06:16:47;8.13;;;5.18;;
43606;SDS011;29197;44.788;10.366;2023-06-14T06:19:37;11.13;;;4.95;;
43606;SDS011;29197;44.788;10.366;2023-06-14T06:22:25;6.20;;;4.80;;
43606;SDS011;29197;44.788;10.366;2023-06-14T06:25:14;6.70;;;4.38;;
43606;SDS011;29197;44.788;10.366;2023-06-14T06:28:03;7.28;;;5.50;;
43606;SDS011;29197;44.788;10.366;2023-06-14T06:30:54;7.60;;;5.50;;
43606;SDS011;29197;44.788;10.366;2023-06-14T06:33:43;11.68;;;5.97;;
43606;SDS011;29197;44.788;10.366;2023-06-14T06:36:31;11.35;;;6.07;;
43606;SDS011;29197;44.788;10.366;2023-06-14T06:39:20;6.40;;;5.22;;
43606;SDS011;29197;44.788;10.366;2023-06-14T06:42:09;9.30;;;5.35;;
43606;SDS011;29197;44.788;10.366;2023-06-14T06:44:58;10.23;;;6.35;;
43606;SDS011;29197;44.788;10.366;2023-06-14T06:47:48;9.35;;;5.15;;
43606;SDS011;29197;44.788;10.366;2023-06-14T06:50:38;12.80;;;6.10;;
43606;SDS011;29197;44.788;10.366;2023-06-14T06:53:27;9.82;;;6.43;;
43606;SDS011;29197;44.788;10.366;2023-06-14T06:56:29;8.23;;;5.93;;
43606;SDS011;29197;44.788;10.366;2023-06-14T06:59:18;8.73;;;6.20;;
43606;SDS011;29197;44.788;10.366;2023-06-14T07:02:07;7.38;;;5.15;;
43606;SDS011;29197;44.788;10.366;2023-06-14T07:04:57;7.50;;;4.75;;
43606;SDS011;29197;44.788;10.366;2023-06-14T07:07:46;7.47;;;5.57;;
43606;SDS011;29197;44.788;10.366;2023-06-14T07:10:35;8.50;;;6.63;;
43606;SDS011;29197;44.788;10.366;2023-06-14T07:13:24;6.90;;;5.25;;
43606;SDS011;29197;44.788;10.366;2023-06-14T07:16:12;7.32;;;4.82;;
43606;SDS011;29197;44.788;10.366;2023-06-14T07:19:01;8.00;;;5.75;;
43606;SDS011;29197;44.788;10.366;2023-06-14T07:21:51;4.97;;;4.35;;
43606;SDS011;29197;44.788;10.366;2023-06-14T07:24:40;6.53;;;4.53;;
43606;SDS011;29197;44.788;10.366;2023-06-14T07:27:29;8.02;;;5.38;;
43606;SDS011;29197;44.788;10.366;2023-06-14T07:30:17;7.28;;;6.13;;
43606;SDS011;29197;44.788;10.366;2023-06-14T07:33:06;7.05;;;4.90;;
43606;SDS011;29197;44.788;10.366;2023-06-14T07:35:55;8.77;;;5.75;;
43606;SDS011;29197;44.788;10.366;2023-06-14T07:38:45;5.78;;;4.95;;
43606;SDS011;29197;44.788;10.366;2023-06-14T07:41:34;8.95;;;6.57;;
43606;SDS011;29197;44.788;10.366;2023-06-14T07:44:22;10.88;;;8.10;;
43606;SDS011;29197;44.788;10.366;2023-06-14T07:47:11;10.10;;;7.38;;
43606;SDS011;29197;44.788;10.366;2023-06-14T07:49:59;10.80;;;7.40;;
43606;SDS011;29197;44.788;10.366;2023-06-14T07:52:48;15.90;;;9.32;;
43606;SDS011;29197;44.788;10.366;2023-06-14T07:55:38;11.52;;;7.90;;
43606;SDS011;29197;44.788;10.366;2023-06-14T07:58:39;10.65;;;7.43;;
43606;SDS011;29197;44.788;10.366;2023-06-14T08:01:28;16.40;;;11.00;;
43606;SDS011;29197;44.788;10.366;2023-06-14T08:04:16;13.68;;;8.95;;
43606;SDS011;29197;44.788;10.366;2023-06-14T08:07:05;19.35;;;11.13;;
43606;SDS011;29197;44.788;10.366;2023-06-14T08:09:53;15.40;;;9.75;;
43606;SDS011;29197;44.788;10.366;2023-06-14T08:12:43;14.38;;;10.55;;
43606;SDS011;29197;44.788;10.366;2023-06-14T08:15:32;12.35;;;9.02;;
43606;SDS011;29197;44.788;10.366;2023-06-14T08:18:20;16.77;;;12.25;;
43606;SDS011;29197;44.788;10.366;2023-06-14T08:21:09;14.25;;;9.73;;
43606;SDS011;29197;44.788;10.366;2023-06-14T08:23:57;13.02;;;8.93;;
43606;SDS011;29197;44.788;10.366;2023-06-14T08:26:47;10.13;;;8.15;;
43606;SDS011;29197;44.788;10.366;2023-06-14T08:29:37;11.20;;;8.77;;
43606;SDS011;29197;44.788;10.366;2023-06-14T08:32:27;15.80;;;11.82;;
43606;SDS011;29197;44.788;10.366;2023-06-14T08:35:15;17.30;;;11.45;;
43606;SDS011;29197;44.788;10.366;2023-06-14T08:38:05;14.93;;;10.35;;
43606;SDS011;29197;44.788;10.366;2023-06-14T08:40:55;12.38;;;8.95;;
43606;SDS011;29197;44.788;10.366;2023-06-14T08:43:45;15.48;;;11.02;;
43606;SDS011;29197;44.788;10.366;2023-06-14T08:46:35;14.30;;;10.00;;
43606;SDS011;29197;44.788;10.366;2023-06-14T08:49:25;11.13;;;8.98;;
43606;SDS011;29197;44.788;10.366;2023-06-14T08:52:14;14.75;;;11.75;;
43606;SDS011;29197;44.788;10.366;2023-06-14T08:55:07;13.90;;;10.95;;
43606;SDS011;29197;44.788;10.366;2023-06-14T08:57:57;14.27;;;11.02;;
43606;SDS011;29197;44.788;10.366;2023-06-14T09:00:46;17.48;;;14.13;;
43606;SDS011;29197;44.788;10.366;2023-06-14T09:03:37;13.32;;;10.40;;
43606;SDS011;29197;44.788;10.366;2023-06-14T09:06:27;15.50;;;12.30;;
43606;SDS011;29197;44.788;10.366;2023-06-14T09:09:16;14.45;;;11.38;;
43606;SDS011;29197;44.788;10.366;2023-06-14T09:12:06;17.08;;;13.05;;
43606;SDS011;29197;44.788;10.366;2023-06-14T09:14:57;12.73;;;10.48;;
43606;SDS011;29197;44.788;10.366;2023-06-14T09:17:46;16.75;;;13.00;;
43606;SDS011;29197;44.788;10.366;2023-06-14T09:20:37;18.35;;;14.38;;
43606;SDS011;29197;44.788;10.366;2023-06-14T09:23:25;16.98;;;10.60;;
43606;SDS011;29197;44.788;10.366;2023-06-14T09:26:15;13.60;;;10.05;;
43606;SDS011;29197;44.788;10.366;2023-06-14T09:29:04;14.93;;;11.88;;
43606;SDS011;29197;44.788;10.366;2023-06-14T09:31:53;10.35;;;8.77;;
43606;SDS011;29197;44.788;10.366;2023-06-14T09:34:42;13.63;;;11.05;;
43606;SDS011;29197;44.788;10.366;2023-06-14T09:37:32;15.95;;;11.35;;
43606;SDS011;29197;44.788;10.366;2023-06-14T09:40:21;12.88;;;10.18;;
43606;SDS011;29197;44.788;10.366;2023-06-14T09:43:09;12.70;;;10.30;;
43606;SDS011;29197;44.788;10.366;2023-06-14T09:45:58;13.63;;;9.23;;
43606;SDS011;29197;44.788;10.366;2023-06-14T09:48:47;12.63;;;8.30;;
43606;SDS011;29197;44.788;10.366;2023-06-14T09:51:36;7.53;;;6.28;;
43606;SDS011;29197;44.788;10.366;2023-06-14T09:54:32;10.88;;;7.25;;
43606;SDS011;29197;44.788;10.366;2023-06-14T09:57:25;9.57;;;8.40;;
43606;SDS011;29197;44.788;10.366;2023-06-14T10:00:16;10.48;;;7.65;;
43606;SDS011;29197;44.788;10.366;2023-06-14T10:03:11;13.13;;;8.88;;
43606;SDS011;29197;44.788;10.366;2023-06-14T10:06:02;10.80;;;9.45;;
43606;SDS011;29197;44.788;10.366;2023-06-14T10:08:55;10.65;;;7.50;;
43606;SDS011;29197;44.788;10.366;2023-06-14T10:11:47;8.27;;;6.38;;
43606;SDS011;29197;44.788;10.366;2023-06-14T10:14:36;9.50;;;8.13;;
43606;SDS011;29197;44.788;10.366;2023-06-14T10:17:27;5.93;;;5.15;;
43606;SDS011;29197;44.788;10.366;2023-06-14T10:20:26;7.80;;;6.32;;
43606;SDS011;29197;44.788;10.366;2023-06-14T10:23:19;9.38;;;7.15;;
43606;SDS011;29197;44.788;10.366;2023-06-14T10:26:08;9.93;;;6.35;;
43606;SDS011;29197;44.788;10.366;2023-06-14T10:29:08;8.77;;;6.97;;
43606;SDS011;29197;44.788;10.366;2023-06-14T10:31:57;9.07;;;6.70;;
43606;SDS011;29197;44.788;10.366;2023-06-14T10:34:52;8.35;;;6.07;;
43606;SDS011;29197;44.788;10.366;2023-06-14T10:37:42;10.05;;;7.88;;
43606;SDS011;29197;44.788;10.366;2023-06-14T10:40:33;10.25;;;6.70;;
43606;SDS011;29197;44.788;10.366;2023-06-14T10:43:23;5.43;;;4.45;;
43606;SDS011;29197;44.788;10.366;2023-06-14T10:46:16;9.88;;;7.28;;
43606;SDS011;29197;44.788;10.366;2023-06-14T10:49:09;9.57;;;7.63;;
43606;SDS011;29197;44.788;10.366;2023-06-14T10:51:58;9.00;;;6.75;;
43606;SDS011;29197;44.788;10.366;2023-06-14T10:54:55;9.57;;;6.78;;
43606;SDS011;29197;44.788;10.366;2023-06-14T10:57:44;8.00;;;6.70;;
43606;SDS011;29197;44.788;10.366;2023-06-14T11:00:38;12.57;;;7.60;;
43606;SDS011;29197;44.788;10.366;2023-06-14T11:06:26;8.05;;;7.13;;
43606;SDS011;29197;44.788;10.366;2023-06-14T11:09:43;10.90;;;6.90;;
43606;SDS011;29197;44.788;10.366;2023-06-14T11:12:47;8.77;;;6.63;;
43606;SDS011;29197;44.788;10.366;2023-06-14T11:15:36;9.70;;;6.43;;
43606;SDS011;29197;44.788;10.366;2023-06-14T11:18:25;7.07;;;4.90;;
43606;SDS011;29197;44.788;10.366;2023-06-14T11:21:16;7.63;;;5.88;;
43606;SDS011;29197;44.788;10.366;2023-06-14T11:24:09;6.20;;;5.38;;
43606;SDS011;29197;44.788;10.366;2023-06-14T11:26:58;6.10;;;4.75;;
43606;SDS011;29197;44.788;10.366;2023-06-14T11:29:48;5.72;;;3.80;;
43606;SDS011;29197;44.788;10.366;2023-06-14T11:32:37;10.32;;;5.15;;
43606;SDS011;29197;44.788;10.366;2023-06-14T11:35:26;7.00;;;5.93;;
43606;SDS011;29197;44.788;10.366;2023-06-14T11:38:14;11.45;;;5.95;;
43606;SDS011;29197;44.788;10.366;2023-06-14T11:41:04;7.97;;;5.22;;
43606;SDS011;29197;44.788;10.366;2023-06-14T11:43:53;7.28;;;4.43;;
43606;SDS011;29197;44.788;10.366;2023-06-14T11:46:41;6.18;;;4.43;;
43606;SDS011;29197;44.788;10.366;2023-06-14T11:49:34;13.25;;;8.00;;
43606;SDS011;29197;44.788;10.366;2023-06-14T11:52:23;7.95;;;5.75;;
43606;SDS011;29197;44.788;10.366;2023-06-14T11:55:12;8.77;;;6.20;;
43606;SDS011;29197;44.788;10.366;2023-06-14T11:58:02;6.38;;;5.47;;
43606;SDS011;29197;44.788;10.366;2023-06-14T12:00:51;6.30;;;4.38;;
43606;SDS011;29197;44.788;10.366;2023-06-14T12:03:46;5.57;;;4.05;;
43606;SDS011;29197;44.788;10.366;2023-06-14T12:06:36;5.68;;;4.32;;
43606;SDS011;29197;44.788;10.366;2023-06-14T12:09:26;4.70;;;4.18;;
43606;SDS011;29197;44.788;10.366;2023-06-14T12:12:15;5.88;;;4.30;;
43606;SDS011;29197;44.788;10.366;2023-06-14T12:15:06;5.60;;;4.07;;
43606;SDS011;29197;44.788;10.366;2023-06-14T12:17:56;5.38;;;3.45;;
43606;SDS011;29197;44.788;10.366;2023-06-14T12:20:47;8.00;;;3.33;;
43606;SDS011;29197;44.788;10.366;2023-06-14T12:23:44;5.80;;;3.40;;
43606;SDS011;29197;44.788;10.366;2023-06-14T12:26:37;4.93;;;2.95;;
43606;SDS011;29197;44.788;10.366;2023-06-14T12:29:27;4.25;;;3.42;;
43606;SDS011;29197;44.788;10.366;2023-06-14T12:32:17;5.38;;;3.40;;
43606;SDS011;29197;44.788;10.366;2023-06-14T12:35:09;4.50;;;3.47;;
43606;SDS011;29197;44.788;10.366;2023-06-14T12:37:58;5.05;;;3.63;;
43606;SDS011;29197;44.788;10.366;2023-06-14T12:40:46;3.88;;;3.45;;
43606;SDS011;29197;44.788;10.366;2023-06-14T12:43:36;4.13;;;3.53;;
43606;SDS011;29197;44.788;10.366;2023-06-14T12:46:24;5.57;;;3.95;;
43606;SDS011;29197;44.788;10.366;2023-06-14T12:49:14;7.35;;;3.33;;
43606;SDS011;29197;44.788;10.366;2023-06-14T12:52:03;6.57;;;4.15;;
43606;SDS011;29197;44.788;10.366;2023-06-14T12:54:52;7.03;;;5.00;;
43606;SDS011;29197;44.788;10.366;2023-06-14T12:57:40;8.85;;;5.63;;
43606;SDS011;29197;44.788;10.366;2023-06-14T13:00:29;6.40;;;3.80;;
43606;SDS011;29197;44.788;10.366;2023-06-14T13:03:17;5.18;;;4.30;;
43606;SDS011;29197;44.788;10.366;2023-06-14T13:06:07;7.28;;;4.85;;
43606;SDS011;29197;44.788;10.366;2023-06-14T13:08:56;7.82;;;5.15;;
43606;SDS011;29197;44.788;10.366;2023-06-14T13:11:46;5.15;;;4.28;;
43606;SDS011;29197;44.788;10.366;2023-06-14T13:14:34;5.57;;;4.45;;
43606;SDS011;29197;44.788;10.366;2023-06-14T13:17:22;5.20;;;4.05;;
43606;SDS011;29197;44.788;10.366;2023-06-14T13:20:11;5.80;;;3.97;;
43606;SDS011;29197;44.788;10.366;2023-06-14T13:23:04;5.22;;;3.90;;
43606;SDS011;29197;44.788;10.366;2023-06-14T13:25:54;4.22;;;3.58;;
43606;SDS011;29197;44.788;10.366;2023-06-14T13:28:42;4.78;;;3.80;;
43606;SDS011;29197;44.788;10.366;2023-06-14T13:31:31;3.75;;;3.25;;
43606;SDS011;29197;44.788;10.366;2023-06-14T13:34:19;4.43;;;3.17;;
43606;SDS011;29197;44.788;10.366;2023-06-14T13:37:08;3.83;;;3.38;;
43606;SDS011;29197;44.788;10.366;2023-06-14T13:39:58;9.18;;;3.90;;
43606;SDS011;29197;44.788;10.366;2023-06-14T13:42:47;5.25;;;3.30;;
43606;SDS011;29197;44.788;10.366;2023-06-14T13:45:35;4.13;;;2.80;;
43606;SDS011;29197;44.788;10.366;2023-06-14T13:48:24;3.65;;;2.88;;
43606;SDS011;29197;44.788;10.366;2023-06-14T13:51:12;2.90;;;2.60;;
43606;SDS011;29197;44.788;10.366;2023-06-14T13:54:01;4.80;;;3.15;;
43606;SDS011;29197;44.788;10.366;2023-06-14T13:56:51;6.47;;;3.42;;
43606;SDS011;29197;44.788;10.366;2023-06-14T13:59:40;4.85;;;3.08;;
43606;SDS011;29197;44.788;10.366;2023-06-14T14:02:30;3.92;;;2.97;;
43606;SDS011;29197;44.788;10.366;2023-06-14T14:05:19;3.58;;;2.70;;
43606;SDS011;29197;44.788;10.366;2023-06-14T14:08:12;7.47;;;3.13;;
43606;SDS011;29197;44.788;10.366;2023-06-14T14:11:01;4.97;;;2.50;;
43606;SDS011;29197;44.788;10.366;2023-06-14T14:13:51;5.45;;;3.45;;
43606;SDS011;29197;44.788;10.366;2023-06-14T14:16:41;4.80;;;2.50;;
43606;SDS011;29197;44.788;10.366;2023-06-14T14:19:29;3.58;;;2.70;;
43606;SDS011;29197;44.788;10.366;2023-06-14T14:22:18;2.22;;;2.03;;
43606;SDS011;29197;44.788;10.366;2023-06-14T14:25:06;4.57;;;3.42;;
43606;SDS011;29197;44.788;10.366;2023-06-14T14:27:55;4.75;;;3.05;;
43606;SDS011;29197;44.788;10.366;2023-06-14T14:30:45;4.28;;;3.22;;
43606;SDS011;29197;44.788;10.366;2023-06-14T14:33:34;3.40;;;3.10;;
43606;SDS011;29197;44.788;10.366;2023-06-14T14:36:23;2.75;;;2.30;;
43606;SDS011;29197;44.788;10.366;2023-06-14T14:39:11;2.88;;;2.50;;
43606;SDS011;29197;44.788;10.366;2023-06-14T14:42:00;4.68;;;2.92;;
43606;SDS011;29197;44.788;10.366;2023-06-14T14:44:48;4.97;;;3.33;;
43606;SDS011;29197;44.788;10.366;2023-06-14T14:47:38;3.67;;;2.78;;
43606;SDS011;29197;44.788;10.366;2023-06-14T14:50:27;3.67;;;3.28;;
43606;SDS011;29197;44.788;10.366;2023-06-14T14:53:15;4.68;;;3.53;;
43606;SDS011;29197;44.788;10.366;2023-06-14T14:56:04;5.28;;;3.08;;
43606;SDS011;29197;44.788;10.366;2023-06-14T14:58:53;3.03;;;2.55;;
43606;SDS011;29197;44.788;10.366;2023-06-14T15:01:41;4.93;;;3.15;;
43606;SDS011;29197;44.788;10.366;2023-06-14T15:04:31;5.85;;;3.45;;
43606;SDS011;29197;44.788;10.366;2023-06-14T15:07:20;2.88;;;2.47;;
43606;SDS011;29197;44.788;10.366;2023-06-14T15:10:08;3.22;;;2.80;;
43606;SDS011;29197;44.788;10.366;2023-06-14T15:12:57;3.25;;;2.95;;
43606;SDS011;29197;44.788;10.366;2023-06-14T15:15:46;3.17;;;2.88;;
43606;SDS011;29197;44.788;10.366;2023-06-14T15:18:34;2.55;;;2.30;;
43606;SDS011;29197;44.788;10.366;2023-06-14T15:21:24;3.35;;;3.05;;
43606;SDS011;29197;44.788;10.366;2023-06-14T15:24:13;3.50;;;2.45;;
43606;SDS011;29197;44.788;10.366;2023-06-14T15:27:10;2.63;;;2.42;;
43606;SDS011;29197;44.788;10.366;2023-06-14T15:30:00;3.17;;;2.78;;
43606;SDS011;29197;44.788;10.366;2023-06-14T15:32:48;3.20;;;2.90;;
43606;SDS011;29197;44.788;10.366;2023-06-14T15:35:37;2.75;;;2.45;;
43606;SDS011;29197;44.788;10.366;2023-06-14T15:38:28;2.88;;;2.42;;
43606;SDS011;29197;44.788;10.366;2023-06-14T15:41:17;4.50;;;2.85;;
43606;SDS011;29197;44.788;10.366;2023-06-14T15:44:05;3.00;;;2.30;;
43606;SDS011;29197;44.788;10.366;2023-06-14T15:46:54;3.55;;;2.38;;
43606;SDS011;29197;44.788;10.366;2023-06-14T15:49:43;3.15;;;2.08;;
43606;SDS011;29197;44.788;10.366;2023-06-14T15:52:31;4.22;;;2.42;;
43606;SDS011;29197;44.788;10.366;2023-06-14T15:55:21;5.05;;;2.38;;
43606;SDS011;29197;44.788;10.366;2023-06-14T15:58:10;2.50;;;2.17;;
43606;SDS011;29197;44.788;10.366;2023-06-14T16:00:58;3.65;;;2.67;;
43606;SDS011;29197;44.788;10.366;2023-06-14T16:03:47;2.75;;;2.08;;
43606;SDS011;29197;44.788;10.366;2023-06-14T16:06:35;3.15;;;2.85;;
43606;SDS011;29197;44.788;10.366;2023-06-14T16:09:24;2.17;;;1.98;;
43606;SDS011;29197;44.788;10.366;2023-06-14T16:12:14;2.70;;;2.50;;
43606;SDS011;29197;44.788;10.366;2023-06-14T16:15:03;2.10;;;1.90;;
43606;SDS011;29197;44.788;10.366;2023-06-14T16:17:52;2.78;;;2.55;;
43606;SDS011;29197;44.788;10.366;2023-06-14T16:20:41;2.67;;;2.30;;
43606;SDS011;29197;44.788;10.366;2023-06-14T16:23:30;3.83;;;2.80;;
43606;SDS011;29197;44.788;10.366;2023-06-14T16:26:18;4.60;;;3.90;;
43606;SDS011;29197;44.788;10.366;2023-06-14T16:29:08;3.67;;;3.38;;
43606;SDS011;29197;44.788;10.366;2023-06-14T16:31:57;3.50;;;3.20;;
43606;SDS011;29197;44.788;10.366;2023-06-14T16:34:46;4.45;;;3.65;;
43606;SDS011;29197;44.788;10.366;2023-06-14T16:37:34;4.07;;;3.33;;
43606;SDS011;29197;44.788;10.366;2023-06-14T16:40:23;4.47;;;3.30;;
43606;SDS011;29197;44.788;10.366;2023-06-14T16:43:11;5.53;;;3.00;;
43606;SDS011;29197;44.788;10.366;2023-06-14T16:46:01;5.70;;;3.13;;
43606;SDS011;29197;44.788;10.366;2023-06-14T16:48:50;6.45;;;2.92;;